createdAt,value
2018-05-06T00:00:39.544Z,8.40
2018-05-06T00:01:39.569Z,8.40
2018-05-06T00:02:39.591Z,7.50
2018-05-06T00:03:39.613Z,6.30
2018-05-06T00:04:39.638Z,7.50
2018-05-06T00:05:39.668Z,7.20
2018-05-06T00:06:39.697Z,7.50
2018-05-06T00:07:39.717Z,7.60
2018-05-06T00:08:39.746Z,8.10
2018-05-06T00:09:39.767Z,7.20
2018-05-06T00:10:39.791Z,7.40
2018-05-06T00:11:39.817Z,8.60
2018-05-06T00:12:39.842Z,7.30
2018-05-06T00:13:39.866Z,7.40
2018-05-06T00:14:39.896Z,8.20
2018-05-06T00:15:39.924Z,7.20
2018-05-06T00:16:39.951Z,6.10
2018-05-06T00:17:39.976Z,7.10
2018-05-06T00:18:39.996Z,9.30
2018-05-06T00:19:40.021Z,9.20
2018-05-06T00:20:40.046Z,9.10
2018-05-06T00:21:40.075Z,7.90
2018-05-06T00:22:40.096Z,8.80
2018-05-06T00:23:40.120Z,8.60
2018-05-06T00:24:40.145Z,8.20
2018-05-06T00:25:40.172Z,6.90
2018-05-06T00:26:40.199Z,8.60
2018-05-06T00:27:40.221Z,7.20
2018-05-06T00:28:40.250Z,6.40
2018-05-06T00:29:40.280Z,7.30
2018-05-06T00:30:40.297Z,8.10
2018-05-06T00:31:40.320Z,7.30
2018-05-06T00:32:40.350Z,8.50
2018-05-06T00:33:40.383Z,8.90
2018-05-06T00:34:40.405Z,8.10
2018-05-06T00:35:40.426Z,6.10
2018-05-06T00:36:40.450Z,6.70
2018-05-06T00:37:40.472Z,8.70
2018-05-06T00:38:40.503Z,9.50
2018-05-06T00:39:40.529Z,7.80
2018-05-06T00:40:40.550Z,8.30
2018-05-06T00:41:40.577Z,5.80
2018-05-06T00:42:40.603Z,6.70
2018-05-06T00:43:40.625Z,8.70
2018-05-06T00:44:40.650Z,8.10
2018-05-06T00:45:40.672Z,10.90
2018-05-06T00:46:40.700Z,8.30
2018-05-06T00:47:40.727Z,6.70
2018-05-06T00:48:40.750Z,7.30
2018-05-06T00:49:40.775Z,6.80
2018-05-06T00:50:40.799Z,6.50
2018-05-06T00:51:40.829Z,7.50
2018-05-06T00:52:40.849Z,8.60
2018-05-06T00:53:40.879Z,8.90
2018-05-06T00:54:40.904Z,7.40
2018-05-06T00:55:40.928Z,8.20
2018-05-06T00:56:40.956Z,7.50
2018-05-06T00:57:40.983Z,6.90
2018-05-06T00:58:41.008Z,6.50
2018-05-06T00:59:41.043Z,7.20
2018-05-06T01:00:41.051Z,6.00
2018-05-06T01:01:41.083Z,7.30
2018-05-06T01:02:41.104Z,7.60
2018-05-06T01:03:41.126Z,8.70
2018-05-06T01:04:41.152Z,8.70
2018-05-06T01:05:41.179Z,8.20
2018-05-06T01:06:41.205Z,8.40
2018-05-06T01:07:41.227Z,7.00
2018-05-06T01:08:41.257Z,7.10
2018-05-06T01:09:41.280Z,8.80
2018-05-06T01:10:41.308Z,7.50
2018-05-06T01:11:41.329Z,9.20
2018-05-06T01:12:41.356Z,8.50
2018-05-06T01:13:41.383Z,7.70
2018-05-06T01:14:41.405Z,8.50
2018-05-06T01:15:41.428Z,7.50
2018-05-06T01:16:41.456Z,7.40
2018-05-06T01:17:41.481Z,8.50
2018-05-06T01:18:41.507Z,8.50
2018-05-06T01:19:41.529Z,8.20
2018-05-06T01:20:41.552Z,7.50
2018-05-06T01:21:41.580Z,7.70
2018-05-06T01:22:41.603Z,6.90
2018-05-06T01:23:41.628Z,10.50
2018-05-06T01:24:41.648Z,8.30
2018-05-06T01:25:41.677Z,7.30
2018-05-06T01:26:41.703Z,7.50
2018-05-06T01:27:41.730Z,8.40
2018-05-06T01:28:41.760Z,7.60
2018-05-06T01:29:41.779Z,7.70
2018-05-06T01:30:41.799Z,6.60
2018-05-06T01:31:41.868Z,8.50
2018-05-06T01:32:41.849Z,7.00
2018-05-06T01:33:41.878Z,7.70
2018-05-06T01:34:41.907Z,7.50
2018-05-06T01:35:41.923Z,7.80
2018-05-06T01:36:41.948Z,6.50
2018-05-06T01:37:41.973Z,7.90
2018-05-06T01:38:42.012Z,8.20
2018-05-06T01:39:42.027Z,7.70
2018-05-06T01:40:42.051Z,7.40
2018-05-06T01:41:42.078Z,7.00
2018-05-06T01:42:42.101Z,8.50
2018-05-06T01:43:42.127Z,7.30
2018-05-06T01:44:42.233Z,6.80
2018-05-06T01:45:42.172Z,7.90
2018-05-06T01:46:42.201Z,6.90
2018-05-06T01:47:42.228Z,7.00
2018-05-06T01:48:42.247Z,6.80
2018-05-06T01:49:42.272Z,7.70
2018-05-06T01:50:42.301Z,8.40
2018-05-06T01:51:42.326Z,7.80
2018-05-06T01:52:42.347Z,6.10
2018-05-06T01:53:42.376Z,9.50
2018-05-06T01:54:42.396Z,6.30
2018-05-06T01:55:42.426Z,6.80
2018-05-06T01:56:42.442Z,6.50
2018-05-06T01:57:42.466Z,7.60
2018-05-06T01:58:42.497Z,6.80
2018-05-06T01:59:42.516Z,6.40
2018-05-06T02:00:42.545Z,7.10
2018-05-06T02:01:42.570Z,6.10
2018-05-06T02:02:42.595Z,5.30
2018-05-06T02:03:42.619Z,7.20
2018-05-06T02:04:42.646Z,7.00
2018-05-06T02:05:42.670Z,7.10
2018-05-06T02:06:42.690Z,8.00
2018-05-06T02:07:42.716Z,6.80
2018-05-06T02:08:42.735Z,7.30
2018-05-06T02:09:42.766Z,6.30
2018-05-06T02:10:42.792Z,6.90
2018-05-06T02:11:42.816Z,6.40
2018-05-06T02:12:42.856Z,6.80
2018-05-06T02:13:42.860Z,7.50
2018-05-06T02:14:42.893Z,6.80
2018-05-06T02:15:42.911Z,7.30
2018-05-06T02:16:42.941Z,7.70
2018-05-06T02:17:42.962Z,8.50
2018-05-06T02:18:42.985Z,8.00
2018-05-06T02:19:43.011Z,7.40
2018-05-06T02:20:43.030Z,8.70
2018-05-06T02:21:43.061Z,7.70
2018-05-06T02:22:43.086Z,6.00
2018-05-06T02:23:43.109Z,8.90
2018-05-06T02:24:43.134Z,7.70
2018-05-06T02:25:43.162Z,7.30
2018-05-06T02:26:43.180Z,7.30
2018-05-06T02:27:43.208Z,6.10
2018-05-06T02:28:43.234Z,6.40
2018-05-06T02:29:43.257Z,5.60
2018-05-06T02:30:43.280Z,8.00
2018-05-06T02:31:43.310Z,7.00
2018-05-06T02:32:43.327Z,5.70
2018-05-06T02:33:43.358Z,7.60
2018-05-06T02:34:43.385Z,8.30
2018-05-06T02:35:43.411Z,7.00
2018-05-06T02:36:43.438Z,7.60
2018-05-06T02:37:43.449Z,7.00
2018-05-06T02:38:43.483Z,7.10
2018-05-06T02:39:43.506Z,7.30
2018-05-06T02:40:43.525Z,6.90
2018-05-06T02:41:43.555Z,7.60
2018-05-06T02:42:43.570Z,7.70
2018-05-06T02:43:43.594Z,7.90
2018-05-06T02:44:43.625Z,7.60
2018-05-06T02:45:43.644Z,8.90
2018-05-06T02:46:43.671Z,6.90
2018-05-06T02:47:43.693Z,6.90
2018-05-06T02:48:43.713Z,9.00
2018-05-06T02:49:43.745Z,7.10
2018-05-06T02:50:43.826Z,5.70
2018-05-06T02:51:43.794Z,6.20
2018-05-06T02:52:43.818Z,7.20
2018-05-06T02:53:43.840Z,8.70
2018-05-06T02:54:43.868Z,6.40
2018-05-06T02:55:43.956Z,8.60
2018-05-06T02:56:43.912Z,8.10
2018-05-06T02:57:43.939Z,7.10
2018-05-06T02:58:43.960Z,7.50
2018-05-06T02:59:43.984Z,6.40
2018-05-06T03:00:44.009Z,6.80
2018-05-06T03:01:44.029Z,7.30
2018-05-06T03:02:44.059Z,6.70
2018-05-06T03:03:44.084Z,6.10
2018-05-06T03:04:44.107Z,7.40
2018-05-06T03:05:44.130Z,6.60
2018-05-06T03:06:44.154Z,6.30
2018-05-06T03:07:44.181Z,7.60
2018-05-06T03:08:44.204Z,6.70
2018-05-06T03:09:44.224Z,7.30
2018-05-06T03:10:44.251Z,7.80
2018-05-06T03:11:44.274Z,7.70
2018-05-06T03:12:44.296Z,6.20
2018-05-06T03:13:44.325Z,6.60
2018-05-06T03:14:44.347Z,6.40
2018-05-06T03:15:44.371Z,7.10
2018-05-06T03:16:44.393Z,8.20
2018-05-06T03:17:44.418Z,7.10
2018-05-06T03:18:44.439Z,7.30
2018-05-06T03:19:44.463Z,7.20
2018-05-06T03:20:44.488Z,7.30
2018-05-06T03:21:44.512Z,6.80
2018-05-06T03:22:44.536Z,7.80
2018-05-06T03:23:44.562Z,7.40
2018-05-06T03:24:44.583Z,6.40
2018-05-06T03:25:44.613Z,7.80
2018-05-06T03:26:44.632Z,6.80
2018-05-06T03:27:44.658Z,7.00
2018-05-06T03:28:44.682Z,8.20
2018-05-06T03:29:44.714Z,9.70
2018-05-06T03:30:44.735Z,8.00
2018-05-06T03:31:44.758Z,7.80
2018-05-06T03:32:44.783Z,6.90
2018-05-06T03:33:44.803Z,6.80
2018-05-06T03:34:44.831Z,5.80
2018-05-06T03:35:44.852Z,7.10
2018-05-06T03:36:44.872Z,7.70
2018-05-06T03:37:44.902Z,6.80
2018-05-06T03:38:44.928Z,6.40
2018-05-06T03:39:44.963Z,7.60
2018-05-06T03:40:44.972Z,7.80
2018-05-06T03:41:44.998Z,8.60
2018-05-06T03:42:45.021Z,5.90
2018-05-06T03:43:45.046Z,6.60
2018-05-06T03:44:45.072Z,6.00
2018-05-06T03:45:45.101Z,7.90
2018-05-06T03:46:45.159Z,8.50
2018-05-06T03:47:45.144Z,6.10
2018-05-06T03:48:45.162Z,5.70
2018-05-06T03:49:45.187Z,7.60
2018-05-06T03:50:45.211Z,5.90
2018-05-06T03:51:45.240Z,6.50
2018-05-06T03:52:45.256Z,6.90
2018-05-06T03:53:45.296Z,6.90
2018-05-06T03:54:45.306Z,6.30
2018-05-06T03:55:45.330Z,9.30
2018-05-06T03:56:45.351Z,6.40
2018-05-06T03:57:45.376Z,8.60
2018-05-06T03:58:45.401Z,7.60
2018-05-06T03:59:45.426Z,7.90
2018-05-06T04:00:45.450Z,7.00
2018-05-06T04:01:45.477Z,6.50
2018-05-06T04:02:45.500Z,6.20
2018-05-06T04:03:45.524Z,7.20
2018-05-06T04:04:45.546Z,7.40
2018-05-06T04:05:45.579Z,6.60
2018-05-06T04:06:45.595Z,8.10
2018-05-06T04:07:45.623Z,6.70
2018-05-06T04:08:45.640Z,7.40
2018-05-06T04:09:45.665Z,7.50
2018-05-06T04:10:45.694Z,7.00
2018-05-06T04:11:45.746Z,7.50
2018-05-06T04:12:45.739Z,7.60
2018-05-06T04:13:45.763Z,9.50
2018-05-06T04:14:45.788Z,9.00
2018-05-06T04:15:45.810Z,7.00
2018-05-06T04:16:45.835Z,6.20
2018-05-06T04:17:45.859Z,6.90
2018-05-06T04:18:45.884Z,7.60
2018-05-06T04:19:45.909Z,7.70
2018-05-06T04:20:45.928Z,6.00
2018-05-06T04:21:45.964Z,8.60
2018-05-06T04:22:45.980Z,5.80
2018-05-06T04:23:46.000Z,7.10
2018-05-06T04:24:46.028Z,6.20
2018-05-06T04:25:46.051Z,6.60
2018-05-06T04:26:46.155Z,8.60
2018-05-06T04:27:46.099Z,8.20
2018-05-06T04:28:46.120Z,6.90
2018-05-06T04:29:46.152Z,6.20
2018-05-06T04:30:46.173Z,4.80
2018-05-06T04:31:46.195Z,7.50
2018-05-06T04:32:46.223Z,8.60
2018-05-06T04:33:46.246Z,14.40
2018-05-06T04:34:46.272Z,27.10
2018-05-06T04:35:46.289Z,21.00
2018-05-06T04:36:46.315Z,17.70
2018-05-06T04:37:46.337Z,11.10
2018-05-06T04:38:46.364Z,8.20
2018-05-06T04:39:46.389Z,9.30
2018-05-06T04:40:46.409Z,7.70
2018-05-06T04:41:46.438Z,8.30
2018-05-06T04:42:46.460Z,7.60
2018-05-06T04:43:46.487Z,9.10
2018-05-06T04:44:46.509Z,7.20
2018-05-06T04:45:46.533Z,7.00
2018-05-06T04:46:46.559Z,6.20
2018-05-06T04:47:46.582Z,8.60
2018-05-06T04:48:46.607Z,6.50
2018-05-06T04:49:46.631Z,6.40
2018-05-06T04:50:46.654Z,7.50
2018-05-06T04:51:46.684Z,7.20
2018-05-06T04:52:46.705Z,6.30
2018-05-06T04:53:46.727Z,15.40
2018-05-06T04:54:46.751Z,12.40
2018-05-06T04:55:46.777Z,15.40
2018-05-06T04:56:46.807Z,10.70
2018-05-06T04:57:46.824Z,8.90
2018-05-06T04:58:46.843Z,8.50
2018-05-06T04:59:46.870Z,8.70
2018-05-06T05:00:46.893Z,10.00
2018-05-06T05:01:46.917Z,8.70
2018-05-06T05:02:46.938Z,47.80
2018-05-06T05:03:46.967Z,38.70
2018-05-06T05:04:46.988Z,28.60
2018-05-06T05:05:47.013Z,20.50
2018-05-06T05:06:47.041Z,15.00
2018-05-06T05:07:47.063Z,15.50
2018-05-06T05:08:47.095Z,7.90
2018-05-06T05:09:47.116Z,9.20
2018-05-06T05:10:47.133Z,8.90
2018-05-06T05:11:47.157Z,6.10
2018-05-06T05:12:47.183Z,6.30
2018-05-06T05:13:47.206Z,7.60
2018-05-06T05:14:47.233Z,9.00
2018-05-06T05:15:47.261Z,8.40
2018-05-06T05:16:47.277Z,7.10
2018-05-06T05:17:47.304Z,6.40
2018-05-06T05:18:47.331Z,5.60
2018-05-06T05:19:47.389Z,5.40
2018-05-06T05:20:47.475Z,4.80
2018-05-06T05:21:47.407Z,6.10
2018-05-06T05:22:47.431Z,5.20
2018-05-06T05:23:47.456Z,6.30
2018-05-06T05:24:47.477Z,5.30
2018-05-06T05:25:47.496Z,6.00
2018-05-06T05:26:47.523Z,6.60
2018-05-06T05:27:47.552Z,6.50
2018-05-06T05:28:47.572Z,5.30
2018-05-06T05:29:47.599Z,7.20
2018-05-06T05:30:47.623Z,4.50
2018-05-06T05:31:47.647Z,8.20
2018-05-06T05:32:47.666Z,13.60
2018-05-06T05:33:47.696Z,11.10
2018-05-06T05:34:47.716Z,8.30
2018-05-06T05:35:47.749Z,12.20
2018-05-06T05:36:47.766Z,12.40
2018-05-06T05:37:47.787Z,8.50
2018-05-06T05:38:47.819Z,6.00
2018-05-06T05:39:47.838Z,8.40
2018-05-06T05:40:47.862Z,6.40
2018-05-06T05:41:47.886Z,8.00
2018-05-06T05:42:47.916Z,5.90
2018-05-06T05:43:47.946Z,5.40
2018-05-06T05:44:47.961Z,5.60
2018-05-06T05:45:47.992Z,4.90
2018-05-06T05:46:48.011Z,5.50
2018-05-06T05:47:48.122Z,10.20
2018-05-06T05:48:48.066Z,21.00
2018-05-06T05:49:48.082Z,9.60
2018-05-06T05:50:48.114Z,8.30
2018-05-06T05:51:48.135Z,5.90
2018-05-06T05:52:48.160Z,7.70
2018-05-06T05:53:48.180Z,9.70
2018-05-06T05:54:48.207Z,6.30
2018-05-06T05:55:48.234Z,5.80
2018-05-06T05:56:48.264Z,6.50
2018-05-06T05:57:48.278Z,7.00
2018-05-06T05:58:48.303Z,6.40
2018-05-06T05:59:48.326Z,6.00
2018-05-06T06:00:48.353Z,7.50
2018-05-06T06:01:48.375Z,6.30
2018-05-06T06:02:48.400Z,9.20
2018-05-06T06:03:48.424Z,8.30
2018-05-06T06:04:48.450Z,6.50
2018-05-06T06:05:48.476Z,6.60
2018-05-06T06:06:48.503Z,9.80
2018-05-06T06:07:48.524Z,7.20
2018-05-06T06:08:48.555Z,8.50
2018-05-06T06:09:48.660Z,5.20
2018-05-06T06:10:48.614Z,6.60
2018-05-06T06:11:48.625Z,6.40
2018-05-06T06:12:48.645Z,6.10
2018-05-06T06:13:48.681Z,5.50
2018-05-06T06:14:48.700Z,9.40
2018-05-06T06:15:48.726Z,9.00
2018-05-06T06:16:48.747Z,8.40
2018-05-06T06:17:48.771Z,7.90
2018-05-06T06:18:48.807Z,5.50
2018-05-06T06:19:48.821Z,7.60
2018-05-06T06:20:48.844Z,8.20
2018-05-06T06:21:48.870Z,6.30
2018-05-06T06:22:48.895Z,6.50
2018-05-06T06:23:48.920Z,6.30
2018-05-06T06:24:48.947Z,5.00
2018-05-06T06:25:48.969Z,6.00
2018-05-06T06:26:48.997Z,5.20
2018-05-06T06:27:49.018Z,6.80
2018-05-06T06:28:49.046Z,7.10
2018-05-06T06:29:49.070Z,6.40
2018-05-06T06:30:49.100Z,10.00
2018-05-06T06:31:49.119Z,6.30
2018-05-06T06:32:49.144Z,6.40
2018-05-06T06:33:49.173Z,5.50
2018-05-06T06:34:49.197Z,6.00
2018-05-06T06:35:49.222Z,6.00
2018-05-06T06:36:49.245Z,7.10
2018-05-06T06:37:49.272Z,7.00
2018-05-06T06:38:49.299Z,4.90
2018-05-06T06:39:49.321Z,8.00
2018-05-06T06:40:49.343Z,6.40
2018-05-06T06:41:49.373Z,5.70
2018-05-06T06:42:49.393Z,7.70
2018-05-06T06:43:49.422Z,7.80
2018-05-06T06:44:49.441Z,5.50
2018-05-06T06:45:49.468Z,6.10
2018-05-06T06:46:49.494Z,4.70
2018-05-06T06:47:49.521Z,4.50
2018-05-06T06:48:49.557Z,5.20
2018-05-06T06:49:49.571Z,5.70
2018-05-06T06:50:49.601Z,4.40
2018-05-06T06:51:49.622Z,5.10
2018-05-06T06:52:49.642Z,5.40
2018-05-06T06:53:49.680Z,6.20
2018-05-06T06:54:49.693Z,4.90
2018-05-06T06:55:49.775Z,5.60
2018-05-06T06:56:49.743Z,7.40
2018-05-06T06:57:49.771Z,4.70
2018-05-06T06:58:49.806Z,4.40
2018-05-06T06:59:49.816Z,4.90
2018-05-06T07:00:49.852Z,4.60
2018-05-06T07:01:49.881Z,5.40
2018-05-06T07:02:49.896Z,5.90
2018-05-06T07:03:49.923Z,5.00
2018-05-06T07:04:49.950Z,4.70
2018-05-06T07:05:50.044Z,4.50
2018-05-06T07:06:49.998Z,4.60
2018-05-06T07:07:50.024Z,5.70
2018-05-06T07:08:50.052Z,4.80
2018-05-06T07:09:50.071Z,5.40
2018-05-06T07:10:50.097Z,5.40
2018-05-06T07:11:50.124Z,5.10
2018-05-06T07:12:50.146Z,4.40
2018-05-06T07:13:50.174Z,4.40
2018-05-06T07:14:50.196Z,5.00
2018-05-06T07:15:50.226Z,5.40
2018-05-06T07:16:50.246Z,5.50
2018-05-06T07:17:50.276Z,5.40
2018-05-06T07:18:50.302Z,5.00
2018-05-06T07:19:50.327Z,6.80
2018-05-06T07:20:50.350Z,5.60
2018-05-06T07:21:50.375Z,6.00
2018-05-06T07:22:50.406Z,5.50
2018-05-06T07:23:50.428Z,4.60
2018-05-06T07:24:50.451Z,7.20
2018-05-06T07:25:50.475Z,5.10
2018-05-06T07:26:50.504Z,4.40
2018-05-06T07:27:50.530Z,5.90
2018-05-06T07:28:50.549Z,5.10
2018-05-06T07:29:50.637Z,6.80
2018-05-06T07:30:50.610Z,7.20
2018-05-06T07:31:50.629Z,4.30
2018-05-06T07:32:50.655Z,4.20
2018-05-06T07:33:50.681Z,5.20
2018-05-06T07:37:17.886Z,5.20
2018-05-06T07:38:17.907Z,6.20
2018-05-06T07:39:17.931Z,6.20
2018-05-06T07:40:17.961Z,5.90
2018-05-06T07:41:17.982Z,4.90
2018-05-06T07:42:18.012Z,4.20
2018-05-06T07:43:18.036Z,3.80
2018-05-06T07:44:18.066Z,4.50
2018-05-06T07:45:18.090Z,4.60
2018-05-06T07:46:18.112Z,4.60
2018-05-06T07:47:18.136Z,5.50
2018-05-06T07:48:18.163Z,10.60
2018-05-06T07:49:18.192Z,5.60
2018-05-06T07:50:18.217Z,5.70
2018-05-06T07:51:18.243Z,5.50
2018-05-06T07:52:18.266Z,5.70
2018-05-06T07:53:18.298Z,6.20
2018-05-06T07:54:18.318Z,5.60
2018-05-06T07:55:18.348Z,4.50
2018-05-06T07:56:18.380Z,8.00
2018-05-06T07:57:18.397Z,5.40
2018-05-06T07:58:18.422Z,6.00
2018-05-06T07:59:18.449Z,4.60
2018-05-06T08:00:18.480Z,5.40
2018-05-06T08:01:18.511Z,5.20
2018-05-06T08:02:18.535Z,5.10
2018-05-06T08:03:18.553Z,6.80
2018-05-06T08:04:18.576Z,6.60
2018-05-06T08:05:18.602Z,4.60
2018-05-06T08:06:18.627Z,5.90
2018-05-06T08:07:18.661Z,7.80
2018-05-06T08:08:18.680Z,6.80
2018-05-06T08:09:18.706Z,6.90
2018-05-06T08:10:18.742Z,5.90
2018-05-06T08:11:18.756Z,5.70
2018-05-06T08:12:18.784Z,8.30
2018-05-06T08:13:18.821Z,4.00
2018-05-06T08:14:18.836Z,8.70
2018-05-06T08:15:18.861Z,4.90
2018-05-06T08:16:18.993Z,4.80
2018-05-06T08:17:18.916Z,4.90
2018-05-06T08:18:18.937Z,4.80
2018-05-06T08:19:18.965Z,4.80
2018-05-06T08:20:18.992Z,4.80
2018-05-06T08:21:19.015Z,4.80
2018-05-06T08:22:19.047Z,7.40
2018-05-06T08:23:19.074Z,4.10
2018-05-06T08:24:19.095Z,5.10
2018-05-06T08:25:19.125Z,5.00
2018-05-06T08:26:19.151Z,5.70
2018-05-06T08:27:19.181Z,4.20
2018-05-06T08:28:19.201Z,4.50
2018-05-06T08:29:19.226Z,4.50
2018-05-06T08:30:19.250Z,4.40
2018-05-06T08:31:19.277Z,5.10
2018-05-06T08:32:19.305Z,3.50
2018-05-06T08:33:19.331Z,4.20
2018-05-06T08:34:19.357Z,5.90
2018-05-06T08:35:19.380Z,9.10
2018-05-06T08:36:19.414Z,5.00
2018-05-06T08:37:19.446Z,5.20
2018-05-06T08:38:19.460Z,6.00
2018-05-06T08:39:19.489Z,3.80
2018-05-06T08:40:19.514Z,4.00
2018-05-06T08:41:19.553Z,3.40
2018-05-06T08:42:19.569Z,4.80
2018-05-06T08:43:19.594Z,3.60
2018-05-06T08:44:19.620Z,4.30
2018-05-06T08:45:19.650Z,4.90
2018-05-06T08:46:19.688Z,4.00
2018-05-06T08:47:19.695Z,5.00
2018-05-06T08:48:19.719Z,4.10
2018-05-06T08:49:19.750Z,4.10
2018-05-06T08:50:19.775Z,4.50
2018-05-06T08:51:19.810Z,5.60
2018-05-06T08:52:19.829Z,5.30
2018-05-06T08:53:19.862Z,9.70
2018-05-06T08:54:19.888Z,10.20
2018-05-06T08:55:19.905Z,3.40
2018-05-06T08:56:19.936Z,5.50
2018-05-06T08:57:19.961Z,5.40
2018-05-06T08:58:19.990Z,5.00
2018-05-06T08:59:20.020Z,4.70
2018-05-06T09:00:20.049Z,5.50
2018-05-06T09:01:20.067Z,8.20
2018-05-06T09:02:20.093Z,7.40
2018-05-06T09:03:20.121Z,5.50
2018-05-06T09:04:20.150Z,3.80
2018-05-06T09:05:20.169Z,5.40
2018-05-06T09:06:20.199Z,7.30
2018-05-06T09:07:20.224Z,4.00
2018-05-06T09:08:20.263Z,4.10
2018-05-06T09:09:20.278Z,5.10
2018-05-06T09:10:20.311Z,4.40
2018-05-06T09:11:20.332Z,4.30
2018-05-06T09:12:20.360Z,4.60
2018-05-06T09:13:20.387Z,3.80
2018-05-06T09:14:20.411Z,3.90
2018-05-06T09:15:20.433Z,5.00
2018-05-06T09:16:20.463Z,3.40
2018-05-06T09:17:20.488Z,3.00
2018-05-06T09:18:20.513Z,4.30
2018-05-06T09:19:20.547Z,5.30
2018-05-06T09:20:20.572Z,5.60
2018-05-06T09:21:20.598Z,5.40
2018-05-06T09:22:20.622Z,3.90
2018-05-06T09:23:20.653Z,4.60
2018-05-06T09:24:20.680Z,3.10
2018-05-06T09:25:20.711Z,4.30
2018-05-06T09:26:20.729Z,3.00
2018-05-06T09:27:20.751Z,3.90
2018-05-06T09:28:20.782Z,4.00
2018-05-06T09:29:20.811Z,4.20
2018-05-06T09:30:20.835Z,4.30
2018-05-06T09:31:20.866Z,3.70
2018-05-06T09:32:20.920Z,5.20
2018-05-06T09:33:20.913Z,3.80
2018-05-06T09:34:20.942Z,4.60
2018-05-06T09:35:20.967Z,3.10
2018-05-06T09:36:21.002Z,4.00
2018-05-06T09:37:21.025Z,4.40
2018-05-06T09:38:21.051Z,3.60
2018-05-06T09:39:21.086Z,3.20
2018-05-06T09:40:21.100Z,3.10
2018-05-06T09:41:21.131Z,4.90
2018-05-06T09:42:21.161Z,5.40
2018-05-06T09:43:21.181Z,5.90
2018-05-06T09:44:21.275Z,3.90
2018-05-06T09:45:21.238Z,4.40
2018-05-06T09:46:21.262Z,3.10
2018-05-06T09:47:21.286Z,4.60
2018-05-06T09:48:21.316Z,7.10
2018-05-06T09:49:21.347Z,2.30
2018-05-06T09:50:21.405Z,2.80
2018-05-06T09:51:21.396Z,2.60
2018-05-06T09:52:21.422Z,4.60
2018-05-06T09:53:21.454Z,4.30
2018-05-06T09:54:21.476Z,8.10
2018-05-06T09:55:21.503Z,3.90
2018-05-06T09:56:21.533Z,5.50
2018-05-06T09:57:21.561Z,2.70
2018-05-06T09:58:21.590Z,5.60
2018-05-06T09:59:21.613Z,9.70
2018-05-06T10:00:21.704Z,6.80
2018-05-06T10:01:21.707Z,4.00
2018-05-06T10:02:21.691Z,2.40
2018-05-06T10:03:21.730Z,4.30
2018-05-06T10:04:21.748Z,3.30
2018-05-06T10:05:21.779Z,6.10
2018-05-06T10:06:21.806Z,3.90
2018-05-06T10:07:21.832Z,2.10
2018-05-06T10:08:21.917Z,6.00
2018-05-06T10:09:21.885Z,2.90
2018-05-06T10:10:21.911Z,2.40
2018-05-06T10:11:21.936Z,1.80
2018-05-06T10:12:21.967Z,1.40
2018-05-06T10:13:21.998Z,3.60
2018-05-06T10:14:22.020Z,2.10
2018-05-06T10:15:22.045Z,1.90
2018-05-06T10:16:22.076Z,1.10
2018-05-06T10:17:22.100Z,1.30
2018-05-06T10:18:22.131Z,1.30
2018-05-06T10:19:22.159Z,2.00
2018-05-06T10:20:22.181Z,1.50
2018-05-06T10:21:22.209Z,2.60
2018-05-06T10:22:22.247Z,2.70
2018-05-06T10:23:22.268Z,1.60
2018-05-06T10:24:22.290Z,0.80
2018-05-06T10:25:22.320Z,1.30
2018-05-06T10:26:22.348Z,1.30
2018-05-06T10:27:22.376Z,3.00
2018-05-06T10:28:22.405Z,5.00
2018-05-06T10:29:22.444Z,1.80
2018-05-06T10:30:22.455Z,4.90
2018-05-06T10:31:22.488Z,3.20
2018-05-06T10:32:22.514Z,2.20
2018-05-06T10:33:22.545Z,4.80
2018-05-06T10:34:22.567Z,3.90
2018-05-06T10:35:22.608Z,2.10
2018-05-06T10:36:22.629Z,1.40
2018-05-06T10:37:22.651Z,1.50
2018-05-06T10:38:22.691Z,1.50
2018-05-06T10:39:22.704Z,2.20
2018-05-06T10:40:22.734Z,4.30
2018-05-06T10:41:22.762Z,2.50
2018-05-06T10:42:22.829Z,1.20
2018-05-06T10:43:22.814Z,1.60
2018-05-06T10:44:22.933Z,2.00
2018-05-06T10:45:22.878Z,1.70
2018-05-06T10:46:22.899Z,2.80
2018-05-06T10:47:22.925Z,3.10
2018-05-06T10:48:22.959Z,1.40
2018-05-06T10:49:23.051Z,1.40
2018-05-06T10:50:23.013Z,2.90
2018-05-06T10:51:23.034Z,1.50
2018-05-06T10:52:23.069Z,4.30
2018-05-06T10:53:23.094Z,2.00
2018-05-06T10:54:23.117Z,2.70
2018-05-06T10:55:23.152Z,18.90
2018-05-06T10:56:23.179Z,8.80
2018-05-06T10:57:23.215Z,1.90
2018-05-06T10:58:23.233Z,1.30
2018-05-06T10:59:23.263Z,1.40
2018-05-06T11:00:23.294Z,4.70
2018-05-06T11:01:23.322Z,8.20
2018-05-06T11:02:23.357Z,3.40
2018-05-06T11:03:23.387Z,3.10
2018-05-06T11:04:23.421Z,3.40
2018-05-06T11:05:23.446Z,8.80
2018-05-06T11:06:23.479Z,3.80
2018-05-06T11:07:23.508Z,3.30
2018-05-06T11:08:23.539Z,7.60
2018-05-06T11:09:23.576Z,6.80
2018-05-06T11:10:23.692Z,6.70
2018-05-06T11:11:23.639Z,5.10
2018-05-06T11:12:23.678Z,2.60
2018-05-06T11:13:23.706Z,1.50
2018-05-06T11:14:23.737Z,1.90
2018-05-06T11:15:23.777Z,2.00
2018-05-06T11:16:23.811Z,6.40
2018-05-06T11:17:23.841Z,4.20
2018-05-06T11:18:23.873Z,7.30
2018-05-06T11:19:23.907Z,10.70
2018-05-06T11:20:23.943Z,1.60
2018-05-06T11:21:23.980Z,4.50
2018-05-06T11:22:24.012Z,8.30
2018-05-06T11:23:24.050Z,7.30
2018-05-06T11:24:24.081Z,7.20
2018-05-06T11:25:24.122Z,14.10
2018-05-06T11:26:24.156Z,4.30
2018-05-06T11:27:24.195Z,1.40
2018-05-06T11:28:24.231Z,2.90
2018-05-06T11:29:24.271Z,4.70
2018-05-06T11:30:24.303Z,3.70
2018-05-06T11:31:24.337Z,10.30
2018-05-06T11:32:24.375Z,2.50
2018-05-06T11:33:24.495Z,2.50
2018-05-06T11:34:24.451Z,1.90
2018-05-06T11:35:24.487Z,3.70
2018-05-06T11:36:24.526Z,4.00
2018-05-06T11:37:24.570Z,4.90
2018-05-06T11:38:24.601Z,1.90
2018-05-06T11:39:24.641Z,1.50
2018-05-06T11:40:24.685Z,1.60
2018-05-06T11:41:24.715Z,4.50
2018-05-06T11:42:24.759Z,2.30
2018-05-06T11:43:24.790Z,1.30
2018-05-06T11:44:24.832Z,3.40
2018-05-06T11:45:24.873Z,1.50
2018-05-06T11:46:24.909Z,1.70
2018-05-06T11:47:24.946Z,2.10
2018-05-06T11:48:24.989Z,2.10
2018-05-06T11:49:25.021Z,2.60
2018-05-06T11:50:25.064Z,2.00
2018-05-06T11:51:25.101Z,3.90
2018-05-06T11:52:25.138Z,5.30
2018-05-06T11:53:25.175Z,3.80
2018-05-06T11:54:25.215Z,2.90
2018-05-06T11:55:25.257Z,3.70
2018-05-06T11:56:25.347Z,3.10
2018-05-06T11:57:25.330Z,2.30
2018-05-06T11:58:25.375Z,2.00
2018-05-06T11:59:25.410Z,2.20
2018-05-06T12:00:25.450Z,2.20
2018-05-06T12:01:25.491Z,2.00
2018-05-06T12:02:25.553Z,14.30
2018-05-06T12:03:25.573Z,1.70
2018-05-06T12:04:25.634Z,1.70
2018-05-06T12:05:25.649Z,3.30
2018-05-06T12:06:25.689Z,1.50
2018-05-06T12:07:25.731Z,2.40
2018-05-06T12:08:25.769Z,1.40
2018-05-06T12:09:25.807Z,13.70
2018-05-06T12:10:25.847Z,3.00
2018-05-06T12:11:25.885Z,6.20
2018-05-06T12:12:25.924Z,2.50
2018-05-06T12:13:25.965Z,1.40
2018-05-06T12:14:26.004Z,1.50
2018-05-06T12:15:26.077Z,2.60
2018-05-06T12:16:26.083Z,3.40
2018-05-06T12:17:26.127Z,2.80
2018-05-06T12:18:26.163Z,2.00
2018-05-06T12:19:26.204Z,2.10
2018-05-06T12:20:26.244Z,2.80
2018-05-06T12:21:26.283Z,4.40
2018-05-06T12:22:26.323Z,3.10
2018-05-06T12:23:26.364Z,3.90
2018-05-06T12:24:26.406Z,2.80
2018-05-06T12:25:26.447Z,4.50
2018-05-06T12:26:26.487Z,3.10
2018-05-06T12:27:26.528Z,2.20
2018-05-06T12:28:26.570Z,2.80
2018-05-06T12:29:26.608Z,2.40
2018-05-06T12:30:26.653Z,1.90
2018-05-06T12:31:26.688Z,2.20
2018-05-06T12:32:26.729Z,8.40
2018-05-06T12:33:26.770Z,1.60
2018-05-06T12:34:26.810Z,2.70
2018-05-06T12:35:26.849Z,2.20
2018-05-06T12:36:26.890Z,2.30
2018-05-06T12:37:26.937Z,1.30
2018-05-06T12:38:26.981Z,1.80
2018-05-06T12:39:27.013Z,3.00
2018-05-06T12:40:27.053Z,4.80
2018-05-06T12:41:27.098Z,3.40
2018-05-06T12:42:27.142Z,3.30
2018-05-06T12:43:27.266Z,3.50
2018-05-06T12:44:27.226Z,2.20
2018-05-06T12:45:27.264Z,3.20
2018-05-06T12:46:27.304Z,4.30
2018-05-06T12:47:27.344Z,4.60
2018-05-06T12:48:27.389Z,7.10
2018-05-06T12:49:27.438Z,8.30
2018-05-06T12:50:27.479Z,3.30
2018-05-06T12:51:27.516Z,4.40
2018-05-06T12:52:27.555Z,2.40
2018-05-06T12:53:27.597Z,3.10
2018-05-06T12:54:27.638Z,2.50
2018-05-06T12:55:27.682Z,1.40
2018-05-06T12:56:27.717Z,2.30
2018-05-06T12:57:27.762Z,2.10
2018-05-06T12:58:27.805Z,2.50
2018-05-06T12:59:27.852Z,1.90
2018-05-06T13:00:27.889Z,2.50
2018-05-06T13:01:27.932Z,1.80
2018-05-06T13:02:28.059Z,2.90
2018-05-06T13:03:28.012Z,2.90
2018-05-06T13:04:28.062Z,3.20
2018-05-06T13:05:28.100Z,5.20
2018-05-06T13:06:28.145Z,4.30
2018-05-06T13:07:28.178Z,8.10
2018-05-06T13:08:28.225Z,2.80
2018-05-06T13:09:28.267Z,2.40
2018-05-06T13:10:28.308Z,5.00
2018-05-06T13:11:28.356Z,2.10
2018-05-06T13:12:28.396Z,2.40
2018-05-06T13:13:28.432Z,2.00
2018-05-06T13:14:28.541Z,1.40
2018-05-06T13:15:28.516Z,6.50
2018-05-06T13:16:28.563Z,1.70
2018-05-06T13:17:28.601Z,2.20
2018-05-06T13:18:28.646Z,1.70
2018-05-06T13:19:28.694Z,2.30
2018-05-06T13:20:28.734Z,4.00